sensor_id;sensor_type;location;lat;lon;timestamp;temperature;humidity
71206;SHT31;58935;54.498;18.544;2022-11-23T00:01:45;2.60;80.31
71206;SHT31;58935;54.498;18.544;2022-11-23T00:04:11;2.59;80.36
71206;SHT31;58935;54.498;18.544;2022-11-23T00:06:37;2.55;80.37
71206;SHT31;58935;54.498;18.544;2022-11-23T00:09:03;2.54;80.51
71206;SHT31;58935;54.498;18.544;2022-11-23T00:11:32;2.52;80.59
71206;SHT31;58935;54.498;18.544;2022-11-23T00:13:58;2.53;80.60
71206;SHT31;58935;54.498;18.544;2022-11-23T00:16:24;2.54;80.50
71206;SHT31;58935;54.498;18.544;2022-11-23T00:18:52;2.58;80.53
71206;SHT31;58935;54.498;18.544;2022-11-23T00:21:18;2.62;80.43
71206;SHT31;58935;54.498;18.544;2022-11-23T00:23:45;2.64;80.50
71206;SHT31;58935;54.498;18.544;2022-11-23T00:26:11;2.65;80.48
71206;SHT31;58935;54.498;18.544;2022-11-23T00:28:37;2.62;80.46
71206;SHT31;58935;54.498;18.544;2022-11-23T00:31:06;2.64;80.58
71206;SHT31;58935;54.498;18.544;2022-11-23T00:33:32;2.65;80.46
71206;SHT31;58935;54.498;18.544;2022-11-23T00:35:58;2.64;80.31
71206;SHT31;58935;54.498;18.544;2022-11-23T00:38:27;2.64;80.24
71206;SHT31;58935;54.498;18.544;2022-11-23T00:43:22;2.62;80.04
71206;SHT31;58935;54.498;18.544;2022-11-23T00:45:48;2.61;80.00
71206;SHT31;58935;54.498;18.544;2022-11-23T00:48:15;2.59;80.02
71206;SHT31;58935;54.498;18.544;2022-11-23T00:50:40;2.56;80.16
71206;SHT31;58935;54.498;18.544;2022-11-23T00:53:05;2.52;80.13
71206;SHT31;58935;54.498;18.544;2022-11-23T00:55:30;2.52;80.13
71206;SHT31;58935;54.498;18.544;2022-11-23T00:57:56;2.52;80.10
71206;SHT31;58935;54.498;18.544;2022-11-23T01:00:22;2.50;80.13
71206;SHT31;58935;54.498;18.544;2022-11-23T01:02:47;2.49;80.28
71206;SHT31;58935;54.498;18.544;2022-11-23T01:05:12;2.50;80.26
71206;SHT31;58935;54.498;18.544;2022-11-23T01:07:40;2.48;80.21
71206;SHT31;58935;54.498;18.544;2022-11-23T01:10:05;2.46;80.26
71206;SHT31;58935;54.498;18.544;2022-11-23T01:12:32;2.44;80.40
71206;SHT31;58935;54.498;18.544;2022-11-23T01:14:57;2.45;80.58
71206;SHT31;58935;54.498;18.544;2022-11-23T01:17:25;2.47;80.46
71206;SHT31;58935;54.498;18.544;2022-11-23T01:19:50;2.49;80.29
71206;SHT31;58935;54.498;18.544;2022-11-23T01:22:16;2.46;80.23
71206;SHT31;58935;54.498;18.544;2022-11-23T01:24:41;2.46;80.35
71206;SHT31;58935;54.498;18.544;2022-11-23T01:27:06;2.46;80.46
71206;SHT31;58935;54.498;18.544;2022-11-23T01:29:31;2.45;80.40
71206;SHT31;58935;54.498;18.544;2022-11-23T01:31:57;2.43;80.37
71206;SHT31;58935;54.498;18.544;2022-11-23T01:34:22;2.43;80.43
71206;SHT31;58935;54.498;18.544;2022-11-23T01:36:47;2.45;80.47
71206;SHT31;58935;54.498;18.544;2022-11-23T01:39:13;2.46;80.53
71206;SHT31;58935;54.498;18.544;2022-11-23T01:41:39;2.47;80.41
71206;SHT31;58935;54.498;18.544;2022-11-23T01:46:37;2.47;80.30
71206;SHT31;58935;54.498;18.544;2022-11-23T01:49:03;2.46;80.28
71206;SHT31;58935;54.498;18.544;2022-11-23T01:54:03;2.44;79.97
71206;SHT31;58935;54.498;18.544;2022-11-23T01:56:34;2.47;79.88
71206;SHT31;58935;54.498;18.544;2022-11-23T01:59:03;2.51;79.77
71206;SHT31;58935;54.498;18.544;2022-11-23T02:01:33;2.53;79.59
71206;SHT31;58935;54.498;18.544;2022-11-23T02:03:59;2.49;79.44
71206;SHT31;58935;54.498;18.544;2022-11-23T02:06:26;2.44;79.52
71206;SHT31;58935;54.498;18.544;2022-11-23T02:08:52;2.40;79.69
71206;SHT31;58935;54.498;18.544;2022-11-23T02:11:18;2.37;79.82
71206;SHT31;58935;54.498;18.544;2022-11-23T02:13:44;2.37;79.92
71206;SHT31;58935;54.498;18.544;2022-11-23T02:16:12;2.38;79.96
71206;SHT31;58935;54.498;18.544;2022-11-23T02:18:39;2.39;79.87
71206;SHT31;58935;54.498;18.544;2022-11-23T02:21:07;2.41;80.02
71206;SHT31;58935;54.498;18.544;2022-11-23T02:23:39;2.41;79.86
71206;SHT31;58935;54.498;18.544;2022-11-23T02:26:15;2.37;79.76
71206;SHT31;58935;54.498;18.544;2022-11-23T02:28:46;2.39;79.92
71206;SHT31;58935;54.498;18.544;2022-11-23T02:31:15;2.42;79.81
71206;SHT31;58935;54.498;18.544;2022-11-23T02:33:40;2.43;79.73
71206;SHT31;58935;54.498;18.544;2022-11-23T02:38:37;2.44;79.73
71206;SHT31;58935;54.498;18.544;2022-11-23T02:41:06;2.45;79.61
71206;SHT31;58935;54.498;18.544;2022-11-23T02:43:31;2.42;79.50
71206;SHT31;58935;54.498;18.544;2022-11-23T02:45:58;2.36;79.58
71206;SHT31;58935;54.498;18.544;2022-11-23T02:48:27;2.34;79.73
71206;SHT31;58935;54.498;18.544;2022-11-23T02:50:54;2.36;79.82
71206;SHT31;58935;54.498;18.544;2022-11-23T02:53:19;2.40;79.89
71206;SHT31;58935;54.498;18.544;2022-11-23T02:55:45;2.42;79.79
71206;SHT31;58935;54.498;18.544;2022-11-23T02:58:15;2.44;79.83
71206;SHT31;58935;54.498;18.544;2022-11-23T03:00:40;2.45;79.69
71206;SHT31;58935;54.498;18.544;2022-11-23T03:03:05;2.42;79.64
71206;SHT31;58935;54.498;18.544;2022-11-23T03:05:30;2.41;79.74
71206;SHT31;58935;54.498;18.544;2022-11-23T03:07:56;2.38;79.75
71206;SHT31;58935;54.498;18.544;2022-11-23T03:10:22;2.37;79.89
71206;SHT31;58935;54.498;18.544;2022-11-23T03:12:47;2.37;79.86
71206;SHT31;58935;54.498;18.544;2022-11-23T03:15:15;2.32;79.83
71206;SHT31;58935;54.498;18.544;2022-11-23T03:17:40;2.29;79.98
71206;SHT31;58935;54.498;18.544;2022-11-23T03:20:05;2.27;80.16
71206;SHT31;58935;54.498;18.544;2022-11-23T03:22:31;2.26;80.29
71206;SHT31;58935;54.498;18.544;2022-11-23T03:24:57;2.26;80.20
71206;SHT31;58935;54.498;18.544;2022-11-23T03:27:23;2.24;80.15
71206;SHT31;58935;54.498;18.544;2022-11-23T03:29:50;2.22;80.26
71206;SHT31;58935;54.498;18.544;2022-11-23T03:32:16;2.20;80.36
71206;SHT31;58935;54.498;18.544;2022-11-23T03:34:41;2.20;80.42
71206;SHT31;58935;54.498;18.544;2022-11-23T03:37:06;2.22;80.48
71206;SHT31;58935;54.498;18.544;2022-11-23T03:39:31;2.22;80.51
71206;SHT31;58935;54.498;18.544;2022-11-23T03:41:57;2.22;80.53
71206;SHT31;58935;54.498;18.544;2022-11-23T03:44:22;2.24;80.53
71206;SHT31;58935;54.498;18.544;2022-11-23T03:46:47;2.27;80.59
71206;SHT31;58935;54.498;18.544;2022-11-23T03:49:14;2.30;80.50
71206;SHT31;58935;54.498;18.544;2022-11-23T03:51:40;2.33;80.50
71206;SHT31;58935;54.498;18.544;2022-11-23T03:54:05;2.35;80.52
71206;SHT31;58935;54.498;18.544;2022-11-23T03:56:31;2.39;80.61
71206;SHT31;58935;54.498;18.544;2022-11-23T03:58:58;2.43;80.60
71206;SHT31;58935;54.498;18.544;2022-11-23T04:01:23;2.43;80.22
71206;SHT31;58935;54.498;18.544;2022-11-23T04:03:51;2.40;80.22
71206;SHT31;58935;54.498;18.544;2022-11-23T04:06:16;2.37;80.13
71206;SHT31;58935;54.498;18.544;2022-11-23T04:08:42;2.35;80.23
71206;SHT31;58935;54.498;18.544;2022-11-23T04:11:07;2.33;80.30
71206;SHT31;58935;54.498;18.544;2022-11-23T04:13:32;2.33;80.32
71206;SHT31;58935;54.498;18.544;2022-11-23T04:16:00;2.32;80.41
71206;SHT31;58935;54.498;18.544;2022-11-23T04:18:27;2.30;80.42
71206;SHT31;58935;54.498;18.544;2022-11-23T04:20:53;2.30;80.48
71206;SHT31;58935;54.498;18.544;2022-11-23T04:23:18;2.31;80.53
71206;SHT31;58935;54.498;18.544;2022-11-23T04:25:44;2.30;80.48
71206;SHT31;58935;54.498;18.544;2022-11-23T04:28:09;2.30;80.50
71206;SHT31;58935;54.498;18.544;2022-11-23T04:30:35;2.31;80.58
71206;SHT31;58935;54.498;18.544;2022-11-23T04:33:00;2.31;80.52
71206;SHT31;58935;54.498;18.544;2022-11-23T04:35:25;2.30;80.67
71206;SHT31;58935;54.498;18.544;2022-11-23T04:37:50;2.30;80.68
71206;SHT31;58935;54.498;18.544;2022-11-23T04:40:16;2.32;80.72
71206;SHT31;58935;54.498;18.544;2022-11-23T04:42:41;2.35;80.65
71206;SHT31;58935;54.498;18.544;2022-11-23T04:45:06;2.35;80.46
71206;SHT31;58935;54.498;18.544;2022-11-23T04:47:32;2.32;80.23
71206;SHT31;58935;54.498;18.544;2022-11-23T04:49:57;2.30;80.23
71206;SHT31;58935;54.498;18.544;2022-11-23T04:52:22;2.28;80.12
71206;SHT31;58935;54.498;18.544;2022-11-23T04:54:47;2.26;80.18
71206;SHT31;58935;54.498;18.544;2022-11-23T04:57:13;2.28;80.30
71206;SHT31;58935;54.498;18.544;2022-11-23T04:59:41;2.32;80.10
71206;SHT31;58935;54.498;18.544;2022-11-23T05:02:06;2.32;79.97
71206;SHT31;58935;54.498;18.544;2022-11-23T05:04:32;2.34;80.07
71206;SHT31;58935;54.498;18.544;2022-11-23T05:07:00;2.36;80.01
71206;SHT31;58935;54.498;18.544;2022-11-23T05:09:25;2.36;79.80
71206;SHT31;58935;54.498;18.544;2022-11-23T05:11:50;2.36;79.81
71206;SHT31;58935;54.498;18.544;2022-11-23T05:14:18;2.40;79.86
71206;SHT31;58935;54.498;18.544;2022-11-23T05:16:43;2.45;79.69
71206;SHT31;58935;54.498;18.544;2022-11-23T05:19:08;2.46;79.43
71206;SHT31;58935;54.498;18.544;2022-11-23T05:21:34;2.43;79.45
71206;SHT31;58935;54.498;18.544;2022-11-23T05:23:59;2.41;79.50
71206;SHT31;58935;54.498;18.544;2022-11-23T05:26:24;2.38;79.42
71206;SHT31;58935;54.498;18.544;2022-11-23T05:28:50;2.33;79.48
71206;SHT31;58935;54.498;18.544;2022-11-23T05:31:15;2.32;79.69
71206;SHT31;58935;54.498;18.544;2022-11-23T05:33:43;2.30;79.61
71206;SHT31;58935;54.498;18.544;2022-11-23T05:36:09;2.29;79.70
71206;SHT31;58935;54.498;18.544;2022-11-23T05:38:38;2.25;79.74
71206;SHT31;58935;54.498;18.544;2022-11-23T05:41:03;2.24;79.80
71206;SHT31;58935;54.498;18.544;2022-11-23T05:43:30;2.23;79.93
71206;SHT31;58935;54.498;18.544;2022-11-23T05:45:57;2.23;80.03
71206;SHT31;58935;54.498;18.544;2022-11-23T05:48:23;2.24;80.03
71206;SHT31;58935;54.498;18.544;2022-11-23T05:50:49;2.27;80.07
71206;SHT31;58935;54.498;18.544;2022-11-23T05:53:14;2.28;80.00
71206;SHT31;58935;54.498;18.544;2022-11-23T05:55:40;2.29;79.94
71206;SHT31;58935;54.498;18.544;2022-11-23T05:58:08;2.28;79.90
71206;SHT31;58935;54.498;18.544;2022-11-23T06:00:33;2.27;79.90
71206;SHT31;58935;54.498;18.544;2022-11-23T06:02:59;2.29;79.98
71206;SHT31;58935;54.498;18.544;2022-11-23T06:05:25;2.32;80.01
71206;SHT31;58935;54.498;18.544;2022-11-23T06:07:51;2.37;80.04
71206;SHT31;58935;54.498;18.544;2022-11-23T06:10:17;2.40;79.77
71206;SHT31;58935;54.498;18.544;2022-11-23T06:12:43;2.39;79.64
71206;SHT31;58935;54.498;18.544;2022-11-23T06:15:09;2.36;79.68
71206;SHT31;58935;54.498;18.544;2022-11-23T06:17:35;2.32;79.79
71206;SHT31;58935;54.498;18.544;2022-11-23T06:20:00;2.32;80.13
71206;SHT31;58935;54.498;18.544;2022-11-23T06:22:26;2.34;80.08
71206;SHT31;58935;54.498;18.544;2022-11-23T06:24:51;2.36;80.13
71206;SHT31;58935;54.498;18.544;2022-11-23T06:27:16;2.33;79.96
71206;SHT31;58935;54.498;18.544;2022-11-23T06:29:42;2.33;80.20
71206;SHT31;58935;54.498;18.544;2022-11-23T06:32:08;2.37;80.22
71206;SHT31;58935;54.498;18.544;2022-11-23T06:34:33;2.39;80.08
71206;SHT31;58935;54.498;18.544;2022-11-23T06:36:58;2.42;80.17
71206;SHT31;58935;54.498;18.544;2022-11-23T06:39:23;2.47;80.25
71206;SHT31;58935;54.498;18.544;2022-11-23T06:41:49;2.52;80.06
71206;SHT31;58935;54.498;18.544;2022-11-23T06:44:14;2.54;80.00
71206;SHT31;58935;54.498;18.544;2022-11-23T06:46:39;2.56;79.92
71206;SHT31;58935;54.498;18.544;2022-11-23T06:49:04;2.54;79.77
71206;SHT31;58935;54.498;18.544;2022-11-23T06:51:30;2.55;79.80
71206;SHT31;58935;54.498;18.544;2022-11-23T06:53:55;2.54;79.82
71206;SHT31;58935;54.498;18.544;2022-11-23T06:56:21;2.51;79.71
71206;SHT31;58935;54.498;18.544;2022-11-23T06:58:46;2.49;79.86
71206;SHT31;58935;54.498;18.544;2022-11-23T07:01:11;2.53;79.98
71206;SHT31;58935;54.498;18.544;2022-11-23T07:03:39;2.57;79.95
71206;SHT31;58935;54.498;18.544;2022-11-23T07:06:05;2.59;79.76
71206;SHT31;58935;54.498;18.544;2022-11-23T07:08:31;2.62;79.70
71206;SHT31;58935;54.498;18.544;2022-11-23T07:10:59;2.67;79.77
71206;SHT31;58935;54.498;18.544;2022-11-23T07:13:25;2.71;79.74
71206;SHT31;58935;54.498;18.544;2022-11-23T07:15:50;2.73;79.47
71206;SHT31;58935;54.498;18.544;2022-11-23T07:18:16;2.71;79.39
71206;SHT31;58935;54.498;18.544;2022-11-23T07:20:41;2.70;79.37
71206;SHT31;58935;54.498;18.544;2022-11-23T07:23:07;2.70;79.42
71206;SHT31;58935;54.498;18.544;2022-11-23T07:25:35;2.69;79.25
71206;SHT31;58935;54.498;18.544;2022-11-23T07:28:01;2.67;79.23
71206;SHT31;58935;54.498;18.544;2022-11-23T07:30:28;2.64;79.30
71206;SHT31;58935;54.498;18.544;2022-11-23T07:35:24;2.67;79.35
71206;SHT31;58935;54.498;18.544;2022-11-23T07:37:49;2.65;79.30
71206;SHT31;58935;54.498;18.544;2022-11-23T07:40:14;2.64;79.49
71206;SHT31;58935;54.498;18.544;2022-11-23T07:42:40;2.69;79.58
71206;SHT31;58935;54.498;18.544;2022-11-23T07:45:05;2.71;79.43
71206;SHT31;58935;54.498;18.544;2022-11-23T07:47:31;2.76;79.43
71206;SHT31;58935;54.498;18.544;2022-11-23T07:49:57;2.82;79.46
71206;SHT31;58935;54.498;18.544;2022-11-23T07:52:22;2.89;79.38
71206;SHT31;58935;54.498;18.544;2022-11-23T07:54:48;2.94;79.17
71206;SHT31;58935;54.498;18.544;2022-11-23T07:57:13;2.96;79.04
71206;SHT31;58935;54.498;18.544;2022-11-23T07:59:41;3.01;79.10
71206;SHT31;58935;54.498;18.544;2022-11-23T08:02:09;3.02;78.80
71206;SHT31;58935;54.498;18.544;2022-11-23T08:04:38;2.98;78.70
71206;SHT31;58935;54.498;18.544;2022-11-23T08:07:03;2.94;78.67
71206;SHT31;58935;54.498;18.544;2022-11-23T08:09:28;2.87;78.80
71206;SHT31;58935;54.498;18.544;2022-11-23T08:11:53;2.82;79.03
71206;SHT31;58935;54.498;18.544;2022-11-23T08:14:19;2.75;78.96
71206;SHT31;58935;54.498;18.544;2022-11-23T08:16:47;2.72;79.16
71206;SHT31;58935;54.498;18.544;2022-11-23T08:19:15;2.70;79.29
71206;SHT31;58935;54.498;18.544;2022-11-23T08:21:41;2.71;79.39
71206;SHT31;58935;54.498;18.544;2022-11-23T08:24:06;2.79;79.52
71206;SHT31;58935;54.498;18.544;2022-11-23T08:26:32;2.87;79.26
71206;SHT31;58935;54.498;18.544;2022-11-23T08:28:57;2.85;79.01
71206;SHT31;58935;54.498;18.544;2022-11-23T08:31:23;2.82;79.00
71206;SHT31;58935;54.498;18.544;2022-11-23T08:33:48;2.78;79.09
71206;SHT31;58935;54.498;18.544;2022-11-23T08:36:14;2.80;79.17
71206;SHT31;58935;54.498;18.544;2022-11-23T08:38:39;2.79;79.10
71206;SHT31;58935;54.498;18.544;2022-11-23T08:41:04;2.80;79.22
71206;SHT31;58935;54.498;18.544;2022-11-23T08:43:30;2.81;79.11
71206;SHT31;58935;54.498;18.544;2022-11-23T08:45:56;2.79;78.95
71206;SHT31;58935;54.498;18.544;2022-11-23T08:48:22;2.80;79.17
71206;SHT31;58935;54.498;18.544;2022-11-23T08:50:48;2.83;79.10
71206;SHT31;58935;54.498;18.544;2022-11-23T08:53:16;2.86;79.09
71206;SHT31;58935;54.498;18.544;2022-11-23T08:55:41;2.87;78.90
71206;SHT31;58935;54.498;18.544;2022-11-23T08:58:09;2.83;78.98
71206;SHT31;58935;54.498;18.544;2022-11-23T09:00:35;2.80;79.03
71206;SHT31;58935;54.498;18.544;2022-11-23T09:03:00;2.81;79.18
71206;SHT31;58935;54.498;18.544;2022-11-23T09:05:28;2.83;79.09
71206;SHT31;58935;54.498;18.544;2022-11-23T09:07:54;2.83;79.13
71206;SHT31;58935;54.498;18.544;2022-11-23T09:10:23;2.86;79.09
71206;SHT31;58935;54.498;18.544;2022-11-23T09:12:48;2.84;78.92
71206;SHT31;58935;54.498;18.544;2022-11-23T09:15:13;2.80;79.04
71206;SHT31;58935;54.498;18.544;2022-11-23T09:17:39;2.78;79.34
71206;SHT31;58935;54.498;18.544;2022-11-23T09:20:04;2.81;79.43
71206;SHT31;58935;54.498;18.544;2022-11-23T09:22:30;2.82;79.27
71206;SHT31;58935;54.498;18.544;2022-11-23T09:24:55;2.79;79.30
71206;SHT31;58935;54.498;18.544;2022-11-23T09:27:20;2.80;79.41
71206;SHT31;58935;54.498;18.544;2022-11-23T09:29:48;2.82;79.33
71206;SHT31;58935;54.498;18.544;2022-11-23T09:32:14;2.80;79.24
71206;SHT31;58935;54.498;18.544;2022-11-23T09:34:41;2.84;79.42
71206;SHT31;58935;54.498;18.544;2022-11-23T09:37:06;2.88;79.36
71206;SHT31;58935;54.498;18.544;2022-11-23T09:39:32;2.92;79.37
71206;SHT31;58935;54.498;18.544;2022-11-23T09:44:34;2.96;79.26
71206;SHT31;58935;54.498;18.544;2022-11-23T09:49:45;3.02;78.98
71206;SHT31;58935;54.498;18.544;2022-11-23T09:52:24;2.99;79.13
71206;SHT31;58935;54.498;18.544;2022-11-23T09:54:51;2.99;79.11
71206;SHT31;58935;54.498;18.544;2022-11-23T09:57:21;2.99;79.01
71206;SHT31;58935;54.498;18.544;2022-11-23T09:59:56;3.03;79.16
71206;SHT31;58935;54.498;18.544;2022-11-23T10:02:25;3.07;79.09
71206;SHT31;58935;54.498;18.544;2022-11-23T10:04:54;3.13;79.13
71206;SHT31;58935;54.498;18.544;2022-11-23T10:07:27;3.17;78.82
71206;SHT31;58935;54.498;18.544;2022-11-23T10:10:02;3.20;78.71
71206;SHT31;58935;54.498;18.544;2022-11-23T10:12:35;3.20;78.44
71206;SHT31;58935;54.498;18.544;2022-11-23T10:15:13;3.20;78.47
71206;SHT31;58935;54.498;18.544;2022-11-23T10:17:51;3.16;78.18
71206;SHT31;58935;54.498;18.544;2022-11-23T10:20:35;3.14;78.47
71206;SHT31;58935;54.498;18.544;2022-11-23T10:23:06;3.16;78.38
71206;SHT31;58935;54.498;18.544;2022-11-23T10:25:41;3.12;78.30
71206;SHT31;58935;54.498;18.544;2022-11-23T10:28:16;3.10;78.25
71206;SHT31;58935;54.498;18.544;2022-11-23T10:30:47;3.09;78.40
71206;SHT31;58935;54.498;18.544;2022-11-23T10:35:56;3.11;78.45
71206;SHT31;58935;54.498;18.544;2022-11-23T10:38:24;3.15;78.46
71206;SHT31;58935;54.498;18.544;2022-11-23T10:41:00;3.19;78.42
71206;SHT31;58935;54.498;18.544;2022-11-23T10:43:34;3.22;78.27
71206;SHT31;58935;54.498;18.544;2022-11-23T10:48:36;3.28;78.12
71206;SHT31;58935;54.498;18.544;2022-11-23T10:53:33;3.35;78.18
71206;SHT31;58935;54.498;18.544;2022-11-23T10:55:58;3.42;78.00
71206;SHT31;58935;54.498;18.544;2022-11-23T10:58:29;3.49;77.82
71206;SHT31;58935;54.498;18.544;2022-11-23T11:01:00;3.54;77.63
71206;SHT31;58935;54.498;18.544;2022-11-23T11:03:28;3.56;77.30
71206;SHT31;58935;54.498;18.544;2022-11-23T11:05:57;3.59;77.48
71206;SHT31;58935;54.498;18.544;2022-11-23T11:08:24;3.63;77.32
71206;SHT31;58935;54.498;18.544;2022-11-23T11:13:46;3.64;77.20
71206;SHT31;58935;54.498;18.544;2022-11-23T11:18:45;3.74;77.07
71206;SHT31;58935;54.498;18.544;2022-11-23T11:23:41;3.80;76.64
71206;SHT31;58935;54.498;18.544;2022-11-23T11:28:45;3.86;76.72
71206;SHT31;58935;54.498;18.544;2022-11-23T11:31:20;3.91;76.68
71206;SHT31;58935;54.498;18.544;2022-11-23T11:33:56;3.94;76.58
71206;SHT31;58935;54.498;18.544;2022-11-23T11:36:26;3.96;76.45
71206;SHT31;58935;54.498;18.544;2022-11-23T11:38:56;3.95;76.43
71206;SHT31;58935;54.498;18.544;2022-11-23T11:41:27;3.94;76.34
71206;SHT31;58935;54.498;18.544;2022-11-23T11:43:57;3.90;76.41
71206;SHT31;58935;54.498;18.544;2022-11-23T11:46:35;3.90;76.51
71206;SHT31;58935;54.498;18.544;2022-11-23T11:49:06;3.88;76.36
71206;SHT31;58935;54.498;18.544;2022-11-23T11:51:38;3.85;76.36
71206;SHT31;58935;54.498;18.544;2022-11-23T11:54:12;3.82;76.38
71206;SHT31;58935;54.498;18.544;2022-11-23T11:56:53;3.84;76.64
71206;SHT31;58935;54.498;18.544;2022-11-23T11:59:35;3.86;76.50
71206;SHT31;58935;54.498;18.544;2022-11-23T12:09:47;3.92;76.26
71206;SHT31;58935;54.498;18.544;2022-11-23T12:12:16;3.96;76.12
71206;SHT31;58935;54.498;18.544;2022-11-23T12:14:44;3.96;76.07
71206;SHT31;58935;54.498;18.544;2022-11-23T12:19:44;3.91;75.96
71206;SHT31;58935;54.498;18.544;2022-11-23T12:22:22;3.88;76.02
71206;SHT31;58935;54.498;18.544;2022-11-23T12:25:10;3.87;76.12
71206;SHT31;58935;54.498;18.544;2022-11-23T12:27:45;3.90;76.06
71206;SHT31;58935;54.498;18.544;2022-11-23T12:30:21;3.91;75.94
71206;SHT31;58935;54.498;18.544;2022-11-23T12:33:12;3.93;75.93
71206;SHT31;58935;54.498;18.544;2022-11-23T12:41:58;3.92;75.94
71206;SHT31;58935;54.498;18.544;2022-11-23T12:46:22;3.95;75.97
71206;SHT31;58935;54.498;18.544;2022-11-23T12:57:03;3.83;75.55
71206;SHT31;58935;54.498;18.544;2022-11-23T13:02:22;3.86;75.59
71206;SHT31;58935;54.498;18.544;2022-11-23T13:05:09;3.87;75.39
71206;SHT31;58935;54.498;18.544;2022-11-23T13:07:54;3.83;75.24
71206;SHT31;58935;54.498;18.544;2022-11-23T13:10:37;3.76;75.29
71206;SHT31;58935;54.498;18.544;2022-11-23T13:15:51;3.70;75.80
71206;SHT31;58935;54.498;18.544;2022-11-23T13:23:36;3.66;76.08
71206;SHT31;58935;54.498;18.544;2022-11-23T13:26:10;3.68;75.93
71206;SHT31;58935;54.498;18.544;2022-11-23T13:28:39;3.71;75.94
71206;SHT31;58935;54.498;18.544;2022-11-23T13:31:24;3.71;75.90
71206;SHT31;58935;54.498;18.544;2022-11-23T13:33:52;3.74;75.94
71206;SHT31;58935;54.498;18.544;2022-11-23T13:38:50;3.69;76.01
71206;SHT31;58935;54.498;18.544;2022-11-23T13:43:47;3.68;75.95
71206;SHT31;58935;54.498;18.544;2022-11-23T13:48:48;3.65;75.97
71206;SHT31;58935;54.498;18.544;2022-11-23T13:53:50;3.65;75.94
71206;SHT31;58935;54.498;18.544;2022-11-23T13:56:37;3.59;75.74
71206;SHT31;58935;54.498;18.544;2022-11-23T14:04:23;3.54;76.22
71206;SHT31;58935;54.498;18.544;2022-11-23T14:06:51;3.59;76.30
71206;SHT31;58935;54.498;18.544;2022-11-23T14:09:24;3.62;76.22
71206;SHT31;58935;54.498;18.544;2022-11-23T14:14:53;3.63;76.34
71206;SHT31;58935;54.498;18.544;2022-11-23T14:18:30;3.61;76.30
71206;SHT31;58935;54.498;18.544;2022-11-23T14:28:11;3.46;76.39
71206;SHT31;58935;54.498;18.544;2022-11-23T14:30:57;3.48;76.41
71206;SHT31;58935;54.498;18.544;2022-11-23T14:33:35;3.51;76.23
71206;SHT31;58935;54.498;18.544;2022-11-23T14:41:32;3.43;76.42
71206;SHT31;58935;54.498;18.544;2022-11-23T14:44:00;3.43;76.41
71206;SHT31;58935;54.498;18.544;2022-11-23T14:46:27;3.41;76.23
71206;SHT31;58935;54.498;18.544;2022-11-23T14:49:01;3.32;76.22
71206;SHT31;58935;54.498;18.544;2022-11-23T14:51:31;3.27;76.37
71206;SHT31;58935;54.498;18.544;2022-11-23T14:54:01;3.24;76.53
71206;SHT31;58935;54.498;18.544;2022-11-23T14:56:36;3.25;76.59
71206;SHT31;58935;54.498;18.544;2022-11-23T14:59:07;3.27;76.76
71206;SHT31;58935;54.498;18.544;2022-11-23T15:01:39;3.25;76.63
71206;SHT31;58935;54.498;18.544;2022-11-23T15:04:20;3.22;76.69
71206;SHT31;58935;54.498;18.544;2022-11-23T15:06:49;3.19;76.85
71206;SHT31;58935;54.498;18.544;2022-11-23T15:14:42;3.16;76.89
71206;SHT31;58935;54.498;18.544;2022-11-23T15:17:11;3.13;76.99
71206;SHT31;58935;54.498;18.544;2022-11-23T15:19:39;3.13;76.99
71206;SHT31;58935;54.498;18.544;2022-11-23T15:22:11;3.11;77.03
71206;SHT31;58935;54.498;18.544;2022-11-23T15:24:38;3.11;77.10
71206;SHT31;58935;54.498;18.544;2022-11-23T15:27:04;3.09;77.21
71206;SHT31;58935;54.498;18.544;2022-11-23T15:29:32;3.09;77.19
71206;SHT31;58935;54.498;18.544;2022-11-23T15:32:00;3.06;77.17
71206;SHT31;58935;54.498;18.544;2022-11-23T15:34:46;3.07;77.27
71206;SHT31;58935;54.498;18.544;2022-11-23T15:37:12;3.10;77.32
71206;SHT31;58935;54.498;18.544;2022-11-23T15:39:38;3.14;77.20
71206;SHT31;58935;54.498;18.544;2022-11-23T15:42:04;3.16;77.20
71206;SHT31;58935;54.498;18.544;2022-11-23T15:44:30;3.15;77.11
71206;SHT31;58935;54.498;18.544;2022-11-23T15:46:58;3.15;77.22
71206;SHT31;58935;54.498;18.544;2022-11-23T15:49:31;3.14;77.15
71206;SHT31;58935;54.498;18.544;2022-11-23T15:52:01;3.12;77.20
71206;SHT31;58935;54.498;18.544;2022-11-23T15:54:29;3.11;77.10
71206;SHT31;58935;54.498;18.544;2022-11-23T15:56:58;3.09;77.09
71206;SHT31;58935;54.498;18.544;2022-11-23T15:59:27;3.07;77.11
71206;SHT31;58935;54.498;18.544;2022-11-23T16:02:05;3.05;77.18
71206;SHT31;58935;54.498;18.544;2022-11-23T16:04:39;3.02;77.17
71206;SHT31;58935;54.498;18.544;2022-11-23T16:09:38;2.98;77.36
71206;SHT31;58935;54.498;18.544;2022-11-23T16:12:24;2.99;77.34
71206;SHT31;58935;54.498;18.544;2022-11-23T16:14:51;3.01;77.46
71206;SHT31;58935;54.498;18.544;2022-11-23T16:17:20;3.03;77.47
71206;SHT31;58935;54.498;18.544;2022-11-23T16:19:49;3.05;77.55
71206;SHT31;58935;54.498;18.544;2022-11-23T16:22:20;3.06;77.42
71206;SHT31;58935;54.498;18.544;2022-11-23T16:24:49;3.03;77.46
71206;SHT31;58935;54.498;18.544;2022-11-23T16:27:20;2.97;77.50
71206;SHT31;58935;54.498;18.544;2022-11-23T16:29:48;2.92;77.74
71206;SHT31;58935;54.498;18.544;2022-11-23T16:34:45;2.88;78.10
71206;SHT31;58935;54.498;18.544;2022-11-23T16:37:12;2.88;78.21
71206;SHT31;58935;54.498;18.544;2022-11-23T16:39:37;2.89;78.16
71206;SHT31;58935;54.498;18.544;2022-11-23T16:42:05;2.88;78.13
71206;SHT31;58935;54.498;18.544;2022-11-23T16:44:30;2.89;78.45
71206;SHT31;58935;54.498;18.544;2022-11-23T16:46:57;2.95;78.46
71206;SHT31;58935;54.498;18.544;2022-11-23T16:49:43;2.96;78.31
71206;SHT31;58935;54.498;18.544;2022-11-23T16:52:08;2.98;78.35
71206;SHT31;58935;54.498;18.544;2022-11-23T16:54:35;3.01;78.26
71206;SHT31;58935;54.498;18.544;2022-11-23T16:57:01;3.00;78.24
71206;SHT31;58935;54.498;18.544;2022-11-23T16:59:29;3.01;78.40
71206;SHT31;58935;54.498;18.544;2022-11-23T17:01:55;3.02;78.31
71206;SHT31;58935;54.498;18.544;2022-11-23T17:04:21;2.98;78.20
71206;SHT31;58935;54.498;18.544;2022-11-23T17:06:49;2.95;78.37
71206;SHT31;58935;54.498;18.544;2022-11-23T17:09:14;2.95;78.45
71206;SHT31;58935;54.498;18.544;2022-11-23T17:11:43;2.94;78.45
71206;SHT31;58935;54.498;18.544;2022-11-23T17:14:11;2.89;78.40
71206;SHT31;58935;54.498;18.544;2022-11-23T17:16:38;2.83;78.44
71206;SHT31;58935;54.498;18.544;2022-11-23T17:21:36;2.79;79.12
71206;SHT31;58935;54.498;18.544;2022-11-23T17:24:01;2.81;79.03
71206;SHT31;58935;54.498;18.544;2022-11-23T17:28:58;2.86;79.17
71206;SHT31;58935;54.498;18.544;2022-11-23T17:31:25;2.88;79.06
71206;SHT31;58935;54.498;18.544;2022-11-23T17:33:50;2.90;79.03
71206;SHT31;58935;54.498;18.544;2022-11-23T17:36:15;2.90;79.05